createdAt,value
2023-10-25T00:01:05.332Z,7.20
2023-10-25T00:03:31.852Z,11.73
2023-10-25T00:05:58.315Z,4.95
2023-10-25T00:08:24.704Z,8.80
2023-10-25T00:10:51.123Z,12.35
2023-10-25T00:13:17.521Z,8.38
2023-10-25T00:15:44.059Z,7.03
2023-10-25T00:18:10.506Z,7.45
2023-10-25T00:20:36.938Z,10.60
2023-10-25T00:23:03.342Z,10.30
2023-10-25T00:25:32.124Z,12.52
2023-10-25T00:27:58.594Z,8.52
2023-10-25T00:30:25.009Z,12.43
2023-10-25T00:32:51.440Z,5.90
2023-10-25T00:35:17.828Z,9.20
2023-10-25T00:37:44.255Z,9.45
2023-10-25T00:40:11.041Z,12.45
2023-10-25T00:42:37.441Z,9.82
2023-10-25T00:45:06.925Z,9.48
2023-10-25T00:47:33.399Z,12.48
2023-10-25T00:50:00.235Z,10.38
2023-10-25T00:52:26.799Z,9.10
2023-10-25T00:54:53.857Z,9.25
2023-10-25T00:57:20.400Z,7.88
2023-10-25T00:59:47.056Z,10.75
2023-10-25T01:02:13.707Z,11.20
2023-10-25T01:04:40.747Z,8.77
2023-10-25T01:07:07.576Z,8.02
2023-10-25T01:09:34.421Z,8.30
2023-10-25T01:12:00.852Z,11.95
2023-10-25T01:14:28.406Z,9.55
2023-10-25T01:16:55.011Z,10.13
2023-10-25T01:19:21.560Z,11.15
2023-10-25T01:21:47.950Z,11.30
2023-10-25T01:24:14.486Z,9.80
2023-10-25T01:26:41.567Z,7.65
2023-10-25T01:29:08.010Z,7.60
2023-10-25T01:31:34.427Z,8.95
2023-10-25T01:34:00.890Z,9.65
2023-10-25T01:36:27.276Z,9.75
2023-10-25T01:38:53.630Z,8.25
2023-10-25T01:41:20.051Z,13.90
2023-10-25T01:43:46.600Z,8.77
2023-10-25T01:46:13.029Z,8.48
2023-10-25T01:48:39.547Z,9.82
2023-10-25T01:51:06.299Z,7.85
2023-10-25T01:53:34.734Z,12.82
2023-10-25T01:58:27.885Z,9.77
2023-10-25T02:00:54.406Z,8.27
2023-10-25T02:03:20.875Z,11.18
2023-10-25T02:05:47.356Z,11.05
2023-10-25T02:08:13.753Z,12.05
2023-10-25T02:10:40.647Z,8.18
2023-10-25T02:13:07.121Z,7.50
2023-10-25T02:15:33.597Z,6.75
2023-10-25T02:18:00.015Z,9.20
2023-10-25T02:20:26.570Z,10.30
2023-10-25T02:22:52.955Z,11.43
2023-10-25T02:25:19.363Z,9.90
2023-10-25T02:27:45.862Z,8.70
2023-10-25T02:30:12.677Z,8.23
2023-10-25T02:32:39.161Z,12.15
2023-10-25T02:35:06.151Z,9.77
2023-10-25T02:37:32.559Z,8.30
2023-10-25T02:39:58.989Z,7.93
2023-10-25T02:42:25.393Z,9.68
2023-10-25T02:44:51.770Z,16.42
2023-10-25T02:47:20.136Z,12.40
2023-10-25T02:52:12.908Z,11.60
2023-10-25T02:54:39.455Z,10.50
2023-10-25T02:57:05.880Z,10.85
2023-10-25T02:59:32.260Z,15.00
2023-10-25T03:01:58.682Z,15.23
2023-10-25T03:04:25.154Z,12.30
2023-10-25T03:06:51.692Z,9.52
2023-10-25T03:09:18.151Z,18.15
2023-10-25T03:11:44.550Z,9.82
2023-10-25T03:14:11.014Z,9.20
2023-10-25T03:16:37.578Z,8.95
2023-10-25T03:19:04.176Z,8.73
2023-10-25T03:21:30.596Z,11.80
2023-10-25T03:23:57.091Z,8.85
2023-10-25T03:26:23.475Z,11.02
2023-10-25T03:28:51.606Z,9.48
2023-10-25T03:31:18.147Z,10.80
2023-10-25T03:33:45.606Z,11.75
2023-10-25T03:36:12.118Z,11.32
2023-10-25T03:38:38.535Z,15.35
2023-10-25T03:41:07.545Z,11.55
2023-10-25T03:43:36.841Z,9.68
2023-10-25T03:46:07.546Z,5.75
2023-10-25T03:48:34.628Z,10.02
2023-10-25T03:51:03.886Z,13.70
2023-10-25T03:53:30.313Z,10.68
2023-10-25T03:55:57.413Z,14.05
2023-10-25T03:58:24.811Z,10.18
2023-10-25T04:00:59.013Z,9.68
2023-10-25T04:03:25.636Z,11.13
2023-10-25T04:05:53.549Z,17.60
2023-10-25T04:08:19.995Z,10.75
2023-10-25T04:10:52.937Z,10.57
2023-10-25T04:13:20.244Z,12.80
2023-10-25T04:16:01.027Z,13.50
2023-10-25T04:18:30.058Z,10.30
2023-10-25T04:20:57.879Z,10.75
2023-10-25T04:23:28.927Z,10.70
2023-10-25T04:26:05.042Z,11.18
2023-10-25T04:28:31.489Z,10.82
2023-10-25T04:30:57.946Z,12.85
2023-10-25T04:33:24.326Z,13.43
2023-10-25T04:35:52.029Z,14.02
2023-10-25T04:38:18.586Z,16.38
2023-10-25T04:40:44.911Z,12.68
2023-10-25T04:43:11.310Z,10.82
2023-10-25T04:45:38.017Z,12.52
2023-10-25T04:48:04.820Z,12.10
2023-10-25T04:50:31.315Z,12.90
2023-10-25T04:52:57.676Z,9.75
2023-10-25T04:55:24.204Z,13.20
2023-10-25T04:57:50.761Z,10.55
2023-10-25T05:00:20.793Z,16.05
2023-10-25T05:02:47.198Z,12.07
2023-10-25T05:05:13.682Z,9.48
2023-10-25T05:07:40.347Z,13.00
2023-10-25T05:10:10.836Z,10.38
2023-10-25T05:12:48.303Z,10.93
2023-10-25T05:15:17.427Z,14.32
2023-10-25T05:17:45.876Z,11.77
2023-10-25T05:22:42.246Z,14.43
2023-10-25T05:25:10.599Z,18.13
2023-10-25T05:30:05.813Z,9.50
2023-10-25T05:32:33.321Z,11.40
2023-10-25T05:35:01.358Z,17.27
2023-10-25T05:37:28.911Z,14.13
2023-10-25T05:39:55.754Z,9.55
2023-10-25T05:42:23.165Z,9.55
2023-10-25T05:44:49.926Z,7.15
2023-10-25T05:47:16.341Z,12.93
2023-10-25T05:49:43.275Z,9.95
2023-10-25T05:52:10.810Z,13.20
2023-10-25T05:54:38.209Z,13.02
2023-10-25T05:57:05.516Z,11.20
2023-10-25T05:59:32.208Z,17.92
2023-10-25T06:02:16.108Z,14.18
2023-10-25T06:04:44.203Z,17.05
2023-10-25T06:07:12.230Z,19.20
2023-10-25T06:09:39.686Z,13.53
2023-10-25T06:12:07.429Z,15.10
2023-10-25T06:14:33.803Z,15.27
2023-10-25T06:17:03.056Z,11.85
2023-10-25T06:19:29.715Z,12.75
2023-10-25T06:21:56.327Z,11.00
2023-10-25T06:24:22.813Z,13.38
2023-10-25T06:26:49.311Z,11.38
2023-10-25T06:29:17.480Z,11.52
2023-10-25T06:31:43.924Z,11.85
2023-10-25T06:34:12.397Z,14.98
2023-10-25T06:36:39.253Z,10.10
2023-10-25T06:39:07.831Z,11.18
2023-10-25T06:41:36.694Z,12.40
2023-10-25T06:44:03.913Z,11.75
2023-10-25T06:46:30.749Z,12.13
2023-10-25T06:48:57.874Z,11.40
2023-10-25T06:51:24.732Z,13.48
2023-10-25T06:53:51.562Z,11.52
2023-10-25T06:56:18.113Z,10.95
2023-10-25T06:58:44.971Z,9.43
2023-10-25T07:01:13.387Z,4.90
2023-10-25T07:06:12.889Z,12.52
2023-10-25T07:08:39.433Z,8.83
2023-10-25T07:11:06.296Z,11.27
2023-10-25T07:13:32.697Z,12.52
2023-10-25T07:15:59.244Z,10.23
2023-10-25T07:18:26.197Z,8.07
2023-10-25T07:20:52.597Z,10.00
2023-10-25T07:23:18.923Z,13.88
2023-10-25T07:25:45.532Z,10.40
2023-10-25T07:28:14.784Z,10.45
2023-10-25T07:30:41.297Z,9.57
2023-10-25T07:33:08.436Z,10.85
2023-10-25T07:35:36.005Z,9.05
2023-10-25T07:38:02.422Z,14.75
2023-10-25T07:40:29.001Z,8.10
2023-10-25T07:42:55.387Z,9.23
2023-10-25T07:45:21.796Z,11.43
2023-10-25T07:47:48.721Z,9.02
2023-10-25T07:50:15.145Z,6.38
2023-10-25T07:52:41.531Z,7.68
2023-10-25T07:55:37.266Z,10.82
2023-10-25T08:00:23.955Z,7.43
2023-10-25T08:02:50.499Z,9.38
2023-10-25T08:05:17.082Z,9.57
2023-10-25T08:07:43.462Z,11.82
2023-10-25T08:10:10.179Z,9.55
2023-10-25T08:12:36.769Z,9.45
2023-10-25T08:15:05.764Z,8.57
2023-10-25T08:17:32.395Z,7.57
2023-10-25T08:19:58.772Z,9.95
2023-10-25T08:22:25.167Z,8.60
2023-10-25T08:24:51.656Z,10.80
2023-10-25T08:27:19.096Z,9.75
2023-10-25T08:29:45.535Z,8.85
2023-10-25T08:32:11.956Z,6.97
2023-10-25T08:34:38.301Z,8.82
2023-10-25T08:37:04.696Z,10.85
2023-10-25T08:39:31.046Z,9.88
2023-10-25T08:41:58.157Z,11.80
2023-10-25T08:44:25.661Z,10.60
2023-10-25T08:46:53.059Z,9.87
2023-10-25T08:49:22.253Z,9.10
2023-10-25T08:51:48.636Z,9.38
2023-10-25T08:54:15.356Z,10.35
2023-10-25T08:56:45.326Z,11.85
2023-10-25T08:59:11.766Z,10.23
2023-10-25T09:01:38.155Z,10.10
2023-10-25T09:04:07.805Z,12.40
2023-10-25T09:06:34.333Z,12.50
2023-10-25T09:09:03.439Z,11.55
2023-10-25T09:11:40.564Z,14.18
2023-10-25T09:14:07.194Z,10.30
2023-10-25T09:16:34.374Z,8.30
2023-10-25T09:19:03.498Z,7.47
2023-10-25T09:21:29.962Z,10.43
2023-10-25T09:23:57.865Z,13.05
2023-10-25T09:26:24.295Z,11.18
2023-10-25T09:28:54.126Z,11.25
2023-10-25T09:31:25.353Z,9.68
2023-10-25T09:33:51.856Z,10.38
2023-10-25T09:36:20.026Z,13.82
2023-10-25T09:38:46.949Z,9.80
2023-10-25T09:41:15.275Z,10.25
2023-10-25T09:43:49.528Z,8.98
2023-10-25T09:46:23.042Z,10.55
2023-10-25T09:49:03.496Z,8.55
2023-10-25T09:51:47.569Z,7.80
2023-10-25T09:54:14.721Z,9.02
2023-10-25T09:56:43.115Z,21.13
2023-10-25T10:01:36.779Z,10.35
2023-10-25T10:04:15.540Z,10.57
2023-10-25T10:07:03.153Z,13.65
2023-10-25T10:09:38.755Z,12.75
2023-10-25T10:12:09.531Z,9.48
2023-10-25T10:14:37.820Z,9.50
2023-10-25T10:19:39.308Z,13.38
2023-10-25T10:22:16.184Z,8.20
2023-10-25T10:24:52.873Z,10.85
2023-10-25T10:27:41.588Z,10.68
2023-10-25T10:30:39.518Z,11.05
2023-10-25T10:33:14.773Z,11.13
2023-10-25T10:35:50.459Z,13.60
2023-10-25T10:38:17.112Z,18.50
2023-10-25T10:40:43.687Z,11.07
2023-10-25T10:43:10.095Z,10.02
2023-10-25T10:45:36.446Z,11.75
2023-10-25T10:48:13.078Z,13.02
2023-10-25T10:50:40.926Z,9.00
2023-10-25T10:53:07.594Z,8.48
2023-10-25T10:55:34.142Z,9.60
2023-10-25T10:58:07.997Z,8.93
2023-10-25T11:00:35.835Z,9.40
2023-10-25T11:03:04.673Z,13.23
2023-10-25T11:05:33.485Z,11.25
2023-10-25T11:07:59.877Z,9.57
2023-10-25T11:10:26.456Z,7.50
2023-10-25T11:12:52.997Z,9.63
2023-10-25T11:15:20.320Z,13.70
2023-10-25T11:17:46.747Z,9.75
2023-10-25T11:20:13.153Z,10.30
2023-10-25T11:22:39.571Z,10.38
2023-10-25T11:25:10.203Z,10.10
2023-10-25T11:27:37.047Z,10.30
2023-10-25T11:30:05.503Z,11.57
2023-10-25T11:32:37.584Z,8.75
2023-10-25T11:35:04.219Z,8.15
2023-10-25T11:37:43.662Z,6.85
2023-10-25T11:40:10.501Z,13.18
2023-10-25T11:42:36.862Z,9.50
2023-10-25T11:45:04.891Z,11.73
2023-10-25T11:47:32.432Z,11.95
2023-10-25T11:50:00.282Z,11.10
2023-10-25T11:52:28.406Z,12.60
2023-10-25T11:54:55.572Z,9.65
2023-10-25T11:57:26.246Z,10.23
2023-10-25T11:59:52.898Z,9.70
2023-10-25T12:02:24.770Z,8.98
2023-10-25T12:04:55.308Z,14.25
2023-10-25T12:07:22.810Z,11.93
2023-10-25T12:09:50.765Z,9.77
2023-10-25T12:12:18.284Z,8.05
2023-10-25T12:14:45.066Z,15.17
2023-10-25T12:17:11.996Z,10.25
2023-10-25T12:19:39.236Z,11.88
2023-10-25T12:22:07.175Z,9.68
2023-10-25T12:24:33.793Z,10.60
2023-10-25T12:27:04.177Z,9.70
2023-10-25T12:29:31.419Z,5.78
2023-10-25T12:31:58.322Z,12.13
2023-10-25T12:34:24.764Z,15.75
2023-10-25T12:36:54.040Z,10.48
2023-10-25T12:39:20.805Z,9.13
2023-10-25T12:41:47.688Z,9.27
2023-10-25T12:44:14.706Z,9.98
2023-10-25T12:46:43.143Z,8.48
2023-10-25T12:51:38.976Z,9.10
2023-10-25T12:54:08.014Z,10.32
2023-10-25T12:56:34.754Z,12.55
2023-10-25T12:59:01.371Z,9.52
2023-10-25T13:01:27.939Z,11.07
2023-10-25T13:03:54.345Z,11.63
2023-10-25T13:06:21.444Z,10.88
2023-10-25T13:08:48.014Z,7.00
2023-10-25T13:11:14.586Z,8.38
2023-10-25T13:13:40.963Z,9.00
2023-10-25T13:16:07.660Z,9.90
2023-10-25T13:18:34.163Z,10.20
2023-10-25T13:21:00.769Z,10.30
2023-10-25T13:23:27.289Z,11.82
2023-10-25T13:25:54.400Z,10.65
2023-10-25T13:28:20.944Z,8.77
2023-10-25T13:30:51.129Z,8.23
2023-10-25T13:33:17.537Z,10.65
2023-10-25T13:35:44.054Z,10.05
2023-10-25T13:38:10.523Z,12.00
2023-10-25T13:40:36.953Z,7.47
2023-10-25T13:43:03.596Z,8.93
2023-10-25T13:45:30.503Z,10.32
2023-10-25T13:47:57.217Z,9.25
2023-10-25T13:50:23.751Z,11.57
2023-10-25T13:52:50.201Z,10.23
2023-10-25T13:55:16.587Z,12.18
2023-10-25T13:57:42.967Z,9.85
2023-10-25T14:00:10.012Z,11.23
2023-10-25T14:02:36.563Z,9.15
2023-10-25T14:05:04.490Z,8.98
2023-10-25T14:07:30.892Z,10.63
2023-10-25T14:09:57.233Z,6.80
2023-10-25T14:12:23.678Z,10.13
2023-10-25T14:14:50.181Z,12.18
2023-10-25T14:17:16.564Z,10.10
2023-10-25T14:19:42.947Z,12.27
2023-10-25T14:22:09.508Z,11.90
2023-10-25T14:24:38.255Z,8.95
2023-10-25T14:27:05.325Z,7.00
2023-10-25T14:29:31.832Z,9.48
2023-10-25T14:31:59.571Z,9.65
2023-10-25T14:34:27.110Z,8.18
2023-10-25T14:36:53.520Z,13.80
2023-10-25T14:39:19.917Z,13.00
2023-10-25T14:41:46.349Z,12.88
2023-10-25T14:44:12.760Z,8.93
2023-10-25T14:46:39.216Z,9.45
2023-10-25T14:49:06.172Z,13.15
2023-10-25T14:51:33.585Z,7.90
2023-10-25T14:54:00.028Z,8.45
2023-10-25T14:56:26.519Z,11.63
2023-10-25T14:58:55.977Z,16.17
2023-10-25T15:01:24.686Z,9.15
2023-10-25T15:03:51.233Z,8.82
2023-10-25T15:06:17.613Z,10.65
2023-10-25T15:08:44.007Z,12.98
2023-10-25T15:11:10.618Z,11.35
2023-10-25T15:13:37.001Z,10.75
2023-10-25T15:16:03.831Z,12.13
2023-10-25T15:18:30.883Z,8.35
2023-10-25T15:20:57.423Z,6.30
2023-10-25T15:23:23.881Z,8.40
2023-10-25T15:25:50.283Z,12.75
2023-10-25T15:28:16.683Z,9.82
2023-10-25T15:30:48.173Z,10.30
2023-10-25T15:33:15.020Z,12.25
2023-10-25T15:36:05.399Z,9.30
2023-10-25T15:38:31.962Z,10.55
2023-10-25T15:41:19.566Z,9.25
2023-10-25T15:43:49.560Z,9.48
2023-10-25T15:46:16.965Z,8.02
2023-10-25T15:48:47.982Z,6.83
2023-10-25T15:51:15.533Z,7.43
2023-10-25T15:53:45.643Z,12.63
2023-10-25T15:56:13.521Z,7.07
2023-10-25T15:58:40.719Z,9.00
2023-10-25T16:01:11.691Z,8.13
2023-10-25T16:03:39.914Z,7.88
2023-10-25T16:06:07.874Z,7.57
2023-10-25T16:08:35.969Z,8.38
2023-10-25T16:11:03.057Z,9.07
2023-10-25T16:13:29.411Z,7.45
2023-10-25T16:15:55.818Z,9.20
2023-10-25T16:18:22.881Z,8.50
2023-10-25T16:20:49.601Z,11.57
2023-10-25T16:23:15.991Z,9.52
2023-10-25T16:25:42.636Z,10.40
2023-10-25T16:28:09.108Z,9.45
2023-10-25T16:30:36.859Z,8.27
2023-10-25T16:33:03.373Z,17.63
2023-10-25T16:35:29.803Z,8.95
2023-10-25T16:37:56.234Z,11.32
2023-10-25T16:40:22.697Z,10.07
2023-10-25T16:42:49.392Z,8.18
2023-10-25T16:45:18.303Z,11.15
2023-10-25T16:47:44.740Z,7.90
2023-10-25T16:50:11.178Z,11.02
2023-10-25T16:52:37.560Z,16.13
2023-10-25T16:55:04.793Z,11.05
2023-10-25T16:57:31.272Z,9.70
2023-10-25T16:59:57.747Z,11.77
2023-10-25T17:02:24.177Z,8.35
2023-10-25T17:04:50.605Z,11.60
2023-10-25T17:07:17.040Z,11.52
2023-10-25T17:09:43.462Z,10.30
2023-10-25T17:12:09.893Z,11.02
2023-10-25T17:14:36.298Z,13.00
2023-10-25T17:17:02.756Z,12.75
2023-10-25T17:19:32.250Z,11.65
2023-10-25T17:21:58.697Z,13.98
2023-10-25T17:24:25.342Z,11.38
2023-10-25T17:26:52.133Z,15.88
2023-10-25T17:29:18.576Z,12.13
2023-10-25T17:31:44.956Z,17.05
2023-10-25T17:34:11.368Z,10.43
2023-10-25T17:36:37.750Z,11.13
2023-10-25T17:39:04.456Z,13.50
2023-10-25T17:41:30.950Z,9.32
2023-10-25T17:43:57.317Z,11.35
2023-10-25T17:46:26.616Z,12.57
2023-10-25T17:48:53.110Z,12.57
2023-10-25T17:51:19.516Z,13.70
2023-10-25T17:53:46.041Z,9.88
2023-10-25T17:56:12.528Z,13.73
2023-10-25T17:58:39.078Z,14.60
2023-10-25T18:01:05.843Z,15.65
2023-10-25T18:03:32.682Z,11.10
2023-10-25T18:06:06.618Z,11.38
2023-10-25T18:08:33.089Z,16.50
2023-10-25T18:11:00.196Z,13.20
2023-10-25T18:13:26.688Z,16.88
2023-10-25T18:15:53.137Z,14.07
2023-10-25T18:18:20.799Z,13.05
2023-10-25T18:20:47.605Z,15.35
2023-10-25T18:23:14.163Z,12.93
2023-10-25T18:25:40.816Z,13.50
2023-10-25T18:28:07.272Z,15.52
2023-10-25T18:31:57.441Z,18.40
2023-10-25T18:33:21.007Z,14.63
2023-10-25T18:35:48.036Z,13.07
2023-10-25T18:38:15.660Z,14.57
2023-10-25T18:40:43.954Z,15.65
2023-10-25T18:43:10.440Z,14.02
2023-10-25T18:45:36.940Z,15.07
2023-10-25T18:48:03.539Z,12.10
2023-10-25T18:50:30.067Z,17.23
2023-10-25T18:52:56.476Z,12.40
2023-10-25T18:55:22.870Z,13.93
2023-10-25T18:57:49.314Z,16.65
2023-10-25T19:00:16.113Z,15.50
2023-10-25T19:02:42.629Z,14.68
2023-10-25T19:06:26.254Z,14.90
2023-10-25T19:08:25.499Z,14.45
2023-10-25T19:10:43.403Z,13.55
2023-10-25T19:13:10.077Z,14.52
2023-10-25T19:15:36.470Z,15.90
2023-10-25T19:18:03.673Z,16.38
2023-10-25T19:20:30.567Z,17.42
2023-10-25T19:22:56.978Z,13.98
2023-10-25T19:25:23.511Z,15.35
2023-10-25T19:27:49.961Z,14.43
2023-10-25T19:30:16.476Z,14.35
2023-10-25T19:32:43.219Z,14.90
2023-10-25T19:35:09.690Z,12.18
2023-10-25T19:37:36.081Z,11.77
2023-10-25T19:40:02.518Z,13.02
2023-10-25T19:42:28.917Z,17.27
2023-10-25T19:44:55.439Z,15.55
2023-10-25T19:47:24.379Z,12.35
2023-10-25T19:49:50.796Z,14.68
2023-10-25T19:52:17.131Z,13.20
2023-10-25T19:54:43.875Z,16.10
2023-10-25T19:57:10.433Z,13.18
2023-10-25T19:59:36.776Z,17.58
2023-10-25T20:02:03.353Z,17.08
2023-10-25T20:04:30.043Z,15.15
2023-10-25T20:06:56.521Z,14.18
2023-10-25T20:09:23.271Z,15.35
2023-10-25T20:11:49.710Z,13.20
2023-10-25T20:14:16.345Z,17.85
2023-10-25T20:16:42.740Z,18.73
2023-10-25T20:19:09.101Z,15.55
2023-10-25T20:21:35.703Z,19.20
2023-10-25T20:24:02.226Z,13.27
2023-10-25T20:26:34.314Z,18.85
2023-10-25T20:29:01.164Z,17.02
2023-10-25T20:31:27.759Z,15.13
2023-10-25T20:33:54.194Z,15.10
2023-10-25T20:36:20.731Z,15.20
2023-10-25T20:38:47.527Z,16.80
2023-10-25T20:41:14.197Z,15.60
2023-10-25T20:43:41.311Z,17.73
2023-10-25T20:46:09.367Z,15.18
2023-10-25T20:48:35.860Z,18.58
2023-10-25T20:51:04.396Z,13.15
2023-10-25T20:53:31.354Z,15.18
2023-10-25T20:55:57.880Z,15.60
2023-10-25T20:58:25.162Z,14.45
2023-10-25T21:00:51.546Z,14.65
2023-10-25T21:03:18.104Z,19.40
2023-10-25T21:05:44.702Z,15.00
2023-10-25T21:08:11.158Z,18.50
2023-10-25T21:10:37.551Z,16.08
2023-10-25T21:13:03.951Z,14.27
2023-10-25T21:15:33.129Z,14.88
2023-10-25T21:17:59.595Z,13.25
2023-10-25T21:20:26.132Z,16.95
2023-10-25T21:22:52.569Z,14.52
2023-10-25T21:25:19.013Z,15.85
2023-10-25T21:27:45.471Z,17.23
2023-10-25T21:30:12.013Z,13.57
2023-10-25T21:32:38.647Z,16.35
2023-10-25T21:35:05.265Z,16.77
2023-10-25T21:37:31.680Z,14.57
2023-10-25T21:39:58.068Z,14.98
2023-10-25T21:42:24.488Z,15.45
2023-10-25T21:44:50.836Z,15.38
2023-10-25T21:47:17.316Z,17.35
2023-10-25T21:49:43.728Z,20.55
2023-10-25T21:52:10.248Z,19.52
2023-10-25T21:54:36.719Z,15.70
2023-10-25T21:57:03.394Z,17.10
2023-10-25T21:59:52.831Z,15.77
2023-10-25T22:02:18.241Z,17.83
2023-10-25T22:04:53.182Z,24.52
2023-10-25T22:07:19.981Z,18.83
2023-10-25T22:09:46.649Z,17.45
2023-10-25T22:12:13.028Z,14.43
2023-10-25T22:14:39.384Z,16.33
2023-10-25T22:17:05.865Z,14.32
2023-10-25T22:19:32.270Z,18.70
2023-10-25T22:21:58.684Z,15.80
2023-10-25T22:24:25.075Z,15.73
2023-10-25T22:26:52.435Z,19.83
2023-10-25T22:29:18.871Z,15.85
2023-10-25T22:31:45.661Z,16.38
2023-10-25T22:34:12.271Z,19.27
2023-10-25T22:36:38.755Z,19.40
2023-10-25T22:39:05.429Z,17.45
2023-10-25T22:41:31.802Z,22.50
2023-10-25T22:43:58.298Z,19.25
2023-10-25T22:46:24.777Z,19.40
2023-10-25T22:48:51.206Z,20.10
2023-10-25T22:51:17.738Z,22.65
2023-10-25T22:53:44.261Z,18.23
2023-10-25T22:56:10.724Z,16.42
2023-10-25T22:58:37.087Z,20.30
2023-10-25T23:01:06.331Z,17.08
2023-10-25T23:03:32.937Z,17.85
2023-10-25T23:05:59.392Z,19.83
2023-10-25T23:08:25.888Z,17.70
2023-10-25T23:10:52.272Z,21.05
2023-10-25T23:13:18.653Z,17.88
2023-10-25T23:15:45.073Z,21.30
2023-10-25T23:18:11.523Z,21.65
2023-10-25T23:20:38.143Z,18.90
2023-10-25T23:23:04.502Z,17.88
2023-10-25T23:25:30.927Z,17.52
2023-10-25T23:27:57.397Z,17.80
2023-10-25T23:30:23.807Z,19.17
2023-10-25T23:32:50.308Z,19.65
2023-10-25T23:35:16.992Z,17.65
2023-10-25T23:37:43.454Z,16.58
2023-10-25T23:40:10.393Z,17.23
2023-10-25T23:42:36.876Z,16.48
2023-10-25T23:45:03.605Z,20.60
2023-10-25T23:47:30.104Z,20.02
2023-10-25T23:49:56.512Z,18.13
2023-10-25T23:52:23.180Z,18.60
2023-10-25T23:54:55.680Z,18.98
2023-10-25T23:57:22.896Z,16.45
2023-10-25T23:59:49.549Z,17.45
